ΕΜΥ, Εθνική Μετεωρολογική Υπηρεσία - Δελτία Καιρού, Προγνώσεις

ΑΕΡΟΝΑΥΤΙΛΙΑ

GREEK AIRPORTS CODES

TAF LGIK 190700Z 1909/1918 30012KT 8000 FEW020=

EUROPEAN AIRPORTS CODES

LFPO 191500Z VRB03KT 9999 FEW025 BKN110 21/12 Q1012 TEMPO4000 SCT025TCU=